Terminal Aerodrome Forecast
Issued by NWS

Home | Current Version | Previous Version | Text Only | Print | Product List | Glossary Off
Versions: 1 2 3 4 5 6 7 8 9 10 11 12 13 14 15 16 17 18 19 20

000
FTUS43 KBIS 101841 AAA
TAFDIK
TAF AMD
KDIK 101841Z 1019/1118 28017G24KT P6SM SCT120
     FM110000 28014KT P6SM SKC
     FM110500 29021G32KT P6SM FEW045
     FM110900 30024G36KT P6SM -SHSN BKN020 OVC035
     FM111400 31019G28KT P6SM -SHSN OVC015=

USA.gov is the U.S. government's official web portal to all federal, state and local government web resources and services.